Time;durP1;ratioP1;P1;durP2;ratioP2;P2;SDS_P1;SDS_P2;PMS_P1;PMS_P2;Temp;Humidity;BMP_temperature;BMP_pressure;BME280_temperature;BME280_humidity;BME280_pressure;Samples;Min_cycle;Max_cycle;Signal;HPM_P1;HPM_P2
2021/11/22 00:01:06;;;;;;;1.98;1.80;;;;;;;7.77;57.59;97844.13;3413322;29;20498;-72
2021/11/22 00:02:48;;;;;;;4.22;1.95;;;;;;;7.79;57.39;97844.69;3402071;29;20399;-71
2021/11/22 00:04:29;;;;;;;2.67;1.85;;;;;;;7.78;57.45;97853.69;3405792;29;20047;-72
2021/11/22 00:06:10;;;;;;;4.30;2.45;;;;;;;7.77;57.43;97840.66;3412212;28;20117;-72
2021/11/22 00:07:51;;;;;;;2.03;1.83;;;;;;;7.79;57.38;97850.00;3402147;29;20127;-71
2021/11/22 00:09:33;;;;;;;1.95;1.85;;;;;;;7.76;57.44;97847.81;3401848;29;20163;-72
2021/11/22 00:11:14;;;;;;;3.40;2.40;;;;;;;7.77;57.43;97854.75;3404199;29;20053;-72
2021/11/22 00:12:54;;;;;;;2.03;1.83;;;;;;;7.77;57.31;97851.25;3413859;29;20114;-71
2021/11/22 00:14:35;;;;;;;2.75;2.00;;;;;;;7.74;57.30;97851.72;3411955;29;20050;-72
2021/11/22 00:16:16;;;;;;;2.25;2.05;;;;;;;7.79;57.34;97849.19;3412517;28;20031;-72
2021/11/22 00:17:57;;;;;;;2.22;1.85;;;;;;;7.79;57.50;97857.16;3413961;29;20074;-72
2021/11/22 00:19:38;;;;;;;2.08;1.88;;;;;;;7.77;57.35;97852.09;3412950;29;20042;-72
2021/11/22 00:21:21;;;;;;;2.53;2.05;;;;;;;7.78;57.35;97848.41;3415175;29;20073;-72
2021/11/22 00:23:01;;;;;;;2.05;1.70;;;;;;;7.76;57.32;97855.75;3400098;29;20039;-71
2021/11/22 00:24:43;;;;;;;2.25;2.00;;;;;;;7.76;57.18;97861.06;3411292;29;20106;-71
2021/11/22 00:26:23;;;;;;;3.13;2.00;;;;;;;7.76;57.07;97866.38;3411923;28;20058;-72
2021/11/22 00:28:04;;;;;;;3.55;1.98;;;;;;;7.76;57.37;97866.38;3400654;29;20035;-72
2021/11/22 00:30:00;;;;;;;2.08;1.88;;;;;;;7.70;57.07;97867.25;3399544;29;20529;-74
2021/11/22 00:31:53;;;;;;;2.00;1.80;;;;;;;7.72;56.89;97867.84;3410522;29;20039;-71
2021/11/22 00:33:48;;;;;;;2.10;1.90;;;;;;;7.73;56.91;97882.72;3399732;29;20051;-73
2021/11/22 00:35:49;;;;;;;2.20;1.65;;;;;;;7.72;56.94;97874.97;3405023;28;20043;-72
2021/11/22 00:37:36;;;;;;;1.45;1.35;;;;;;;7.71;57.13;97889.28;3413995;29;20509;-73
2021/11/22 00:39:16;;;;;;;2.13;1.65;;;;;;;7.70;56.92;97887.66;3415066;29;20043;-72
2021/11/22 00:40:57;;;;;;;1.88;1.30;;;;;;;7.67;56.91;97890.75;3414036;29;20210;-72
2021/11/22 00:42:45;;;;;;;2.40;2.20;;;;;;;7.66;56.95;97881.97;3415294;29;20046;-71
2021/11/22 00:44:27;;;;;;;2.10;1.90;;;;;;;7.67;56.91;97883.63;3411982;29;20054;-71
2021/11/22 00:46:07;;;;;;;2.08;1.77;;;;;;;7.68;56.70;97895.84;3399509;29;20036;-73
2021/11/22 00:47:50;;;;;;;2.83;1.85;;;;;;;7.67;56.76;97894.22;3411226;29;20050;-74
2021/11/22 00:49:32;;;;;;;1.50;1.40;;;;;;;7.67;56.70;97896.88;3417166;28;20043;-72
2021/11/22 00:51:12;;;;;;;2.53;1.52;;;;;;;7.66;56.65;97903.19;3423623;28;20043;-71
2021/11/22 00:52:53;;;;;;;3.38;1.73;;;;;;;7.65;56.63;97901.56;3413808;29;20133;-71
2021/11/22 00:54:34;;;;;;;1.42;1.33;;;;;;;7.66;56.64;97908.50;3401612;29;20040;-71
2021/11/22 00:56:17;;;;;;;2.13;1.33;;;;;;;7.64;56.75;97906.06;3418752;28;20039;-71
2021/11/22 00:57:59;;;;;;;1.83;1.70;;;;;;;7.66;56.72;97895.22;3428039;28;20493;-71
2021/11/22 00:59:40;;;;;;;1.80;1.45;;;;;;;7.66;56.75;97905.84;3427941;28;20046;-71
2021/11/22 01:01:21;;;;;;;2.17;1.75;;;;;;;7.66;56.64;97900.53;3415337;28;20055;-71
2021/11/22 01:03:03;;;;;;;1.50;1.40;;;;;;;7.63;56.55;97893.03;3414415;29;20406;-70
2021/11/22 01:04:44;;;;;;;1.45;1.35;;;;;;;7.63;56.65;97904.44;3414757;29;20141;-71
2021/11/22 01:06:24;;;;;;;1.95;1.70;;;;;;;7.63;56.36;97903.63;3414148;28;20039;-72
2021/11/22 01:08:05;;;;;;;1.98;1.88;;;;;;;7.64;56.45;97898.13;3413393;29;20039;-71
2021/11/22 01:09:46;;;;;;;1.55;1.45;;;;;;;7.63;56.21;97901.78;3400805;29;20119;-70
2021/11/22 01:11:26;;;;;;;2.65;1.60;;;;;;;7.65;56.33;97905.03;3411321;28;20126;-72
2021/11/22 01:13:07;;;;;;;2.03;1.83;;;;;;;7.64;56.42;97898.13;3413626;29;20039;-72
2021/11/22 01:14:48;;;;;;;1.52;1.42;;;;;;;7.64;56.34;97905.25;3414292;29;20043;-72
2021/11/22 01:16:30;;;;;;;1.58;1.48;;;;;;;7.63;56.12;97898.34;3412441;28;20247;-71
2021/11/22 01:18:11;;;;;;;2.55;1.70;;;;;;;7.63;56.21;97899.13;3413548;28;20046;-73
2021/11/22 01:19:53;;;;;;;2.00;1.90;;;;;;;7.63;56.24;97899.13;3414517;29;20121;-72
2021/11/22 01:21:34;;;;;;;2.72;1.40;;;;;;;7.59;55.92;97899.78;3414836;29;20046;-72
2021/11/22 01:23:15;;;;;;;2.22;1.70;;;;;;;7.58;55.97;97906.94;3412284;29;20041;-71
2021/11/22 01:24:56;;;;;;;1.90;1.35;;;;;;;7.59;55.88;97902.44;3418844;28;20133;-72
2021/11/22 01:26:38;;;;;;;2.30;1.70;;;;;;;7.56;56.04;97901.06;3420893;28;20039;-72
2021/11/22 01:28:18;;;;;;;2.00;1.80;;;;;;;7.53;55.64;97903.31;3414451;29;20055;-72
2021/11/22 01:29:59;;;;;;;1.75;1.50;;;;;;;7.43;55.71;97894.06;3413223;29;20059;-70
2021/11/22 01:31:40;;;;;;;2.10;1.33;;;;;;;7.49;55.68;97913.56;3412524;29;20043;-72
2021/11/22 01:33:21;;;;;;;1.60;1.48;;;;;;;7.46;55.59;97913.16;3411901;29;20107;-72
2021/11/22 01:35:02;;;;;;;2.40;2.20;;;;;;;7.45;55.53;97909.72;3414447;29;20031;-70
2021/11/22 01:36:46;;;;;;;1.95;1.85;;;;;;;7.44;55.58;97910.75;3402864;29;20059;-70
2021/11/22 01:38:27;;;;;;;1.63;1.33;;;;;;;7.43;55.71;97917.91;3419845;28;20418;-73
2021/11/22 01:40:09;;;;;;;1.88;1.48;;;;;;;7.42;55.58;97908.31;3413778;29;20035;-71
2021/11/22 01:41:50;;;;;;;2.65;1.45;;;;;;;7.43;55.43;97919.72;3413490;29;20043;-71
2021/11/22 01:43:31;;;;;;;1.75;1.42;;;;;;;7.40;55.50;97913.00;3412435;29;20067;-72
2021/11/22 01:45:14;;;;;;;1.92;1.58;;;;;;;7.35;55.47;97907.56;3414643;29;20086;-72
2021/11/22 01:46:55;;;;;;;2.00;1.27;;;;;;;7.36;55.52;97908.38;3421589;28;20043;-71
2021/11/22 01:48:35;;;;;;;1.35;1.23;;;;;;;7.35;55.49;97915.50;3417075;28;20041;-71
2021/11/22 01:50:19;;;;;;;1.63;1.40;;;;;;;7.36;55.38;97919.00;3415295;29;20035;-71
2021/11/22 01:52:00;;;;;;;1.75;1.50;;;;;;;7.35;55.40;97918.16;3415234;29;20050;-70
2021/11/22 01:53:41;;;;;;;1.40;1.27;;;;;;;7.35;55.47;97920.81;3415921;29;20039;-71
2021/11/22 01:55:24;;;;;;;3.83;1.50;;;;;;;7.34;55.67;97919.19;3416204;29;20126;-71
2021/11/22 01:57:05;;;;;;;1.10;1.00;;;;;;;7.32;55.39;97915.94;3416879;28;20047;-70
2021/11/22 01:58:47;;;;;;;1.98;1.33;;;;;;;7.35;55.43;97918.16;3415759;28;20043;-69
2021/11/22 02:00:40;;;;;;;1.52;1.42;;;;;;;7.39;55.42;97929.16;3415727;29;20035;-71
2021/11/22 02:02:21;;;;;;;3.15;1.92;;;;;;;7.36;55.60;97924.28;3402562;29;20039;-72
2021/11/22 02:04:01;;;;;;;2.65;1.77;;;;;;;7.36;55.39;97927.75;3412642;29;20046;-70
2021/11/22 02:05:42;;;;;;;1.75;1.33;;;;;;;7.35;55.55;97928.75;3416631;28;20039;-70
2021/11/22 02:07:24;;;;;;;1.42;1.27;;;;;;;7.36;55.45;97929.59;3414782;28;20072;-70
2021/11/22 02:09:05;;;;;;;1.42;1.33;;;;;;;7.33;55.36;97941.44;3415705;29;20070;-71
2021/11/22 02:10:46;;;;;;;1.80;1.70;;;;;;;7.32;55.39;97934.50;3416578;29;20043;-70
2021/11/22 02:12:29;;;;;;;2.03;1.50;;;;;;;7.36;55.33;97945.50;3416139;29;20043;-70
2021/11/22 02:14:10;;;;;;;1.73;1.50;;;;;;;7.34;55.50;97943.03;3409920;29;20338;-69
2021/11/22 02:15:52;;;;;;;3.92;1.80;;;;;;;7.34;55.44;97943.03;3403474;29;20043;-72
2021/11/22 02:17:36;;;;;;;1.30;1.20;;;;;;;7.35;55.41;97946.50;3404454;28;20130;-71
2021/11/22 02:19:17;;;;;;;2.28;1.75;;;;;;;7.34;55.44;97955.50;3416555;29;20047;-71
2021/11/22 02:20:58;;;;;;;3.28;1.52;;;;;;;7.33;55.55;97951.19;3416560;29;20070;-70
2021/11/22 02:22:39;;;;;;;1.80;1.40;;;;;;;7.33;55.27;97952.03;3414203;29;20067;-70
2021/11/22 02:24:20;;;;;;;1.42;1.17;;;;;;;7.32;55.42;97953.03;3413392;29;20083;-71
2021/11/22 02:26:00;;;;;;;1.25;1.13;;;;;;;7.34;55.30;97964.25;3415527;28;20046;-71
2021/11/22 02:27:42;;;;;;;1.23;1.13;;;;;;;7.32;55.28;97955.69;3415689;28;20880;-70
2021/11/22 02:29:23;;;;;;;0.93;0.90;;;;;;;7.30;55.33;97965.69;3416482;29;20074;-71
2021/11/22 02:31:04;;;;;;;1.30;1.20;;;;;;;7.30;55.37;97959.59;3415367;29;20487;-70
2021/11/22 02:32:46;;;;;;;1.65;1.33;;;;;;;7.29;55.53;97965.94;3414762;29;20074;-70
2021/11/22 02:34:26;;;;;;;1.70;1.20;;;;;;;7.30;55.51;97962.25;3415174;29;20046;-74
2021/11/22 02:36:07;;;;;;;1.48;1.25;;;;;;;7.26;55.54;97955.78;3416183;29;20047;-70
2021/11/22 02:37:48;;;;;;;1.20;1.10;;;;;;;7.26;55.33;97959.22;3415842;28;20183;-71
2021/11/22 02:39:29;;;;;;;1.30;1.20;;;;;;;7.26;55.28;97951.28;3416354;29;20108;-72
2021/11/22 02:41:10;;;;;;;2.13;1.77;;;;;;;7.24;55.37;97969.22;3416060;29;20058;-71
2021/11/22 02:42:52;;;;;;;2.25;1.20;;;;;;;7.23;55.43;97967.59;3414661;29;20047;-71
2021/11/22 02:44:37;;;;;;;1.58;1.33;;;;;;;7.20;55.39;97968.84;3414417;29;20043;-73
2021/11/22 02:46:18;;;;;;;1.40;1.30;;;;;;;7.20;55.42;97978.59;3416180;29;20130;-72
2021/11/22 02:47:59;;;;;;;2.42;1.20;;;;;;;7.21;55.38;97980.25;3414583;28;20098;-70
2021/11/22 02:49:39;;;;;;;2.08;1.15;;;;;;;7.21;55.39;97967.00;3415494;29;20047;-71
2021/11/22 02:51:20;;;;;;;1.55;0.93;;;;;;;7.21;55.80;97983.72;3416082;29;20406;-72
2021/11/22 02:53:01;;;;;;;1.30;1.20;;;;;;;7.20;55.36;97979.44;3414596;29;20047;-70
2021/11/22 02:54:43;;;;;;;1.55;1.30;;;;;;;7.21;55.49;97990.84;3413919;29;20042;-70
2021/11/22 02:56:29;;;;;;;1.20;1.15;;;;;;;7.19;55.11;97983.09;3416517;29;20125;-70
2021/11/22 02:58:10;;;;;;;2.65;1.27;;;;;;;7.18;55.41;97988.63;3418196;28;20101;-71
2021/11/22 02:59:51;;;;;;;1.92;1.23;;;;;;;7.15;55.38;97983.75;3415104;28;20047;-70
2021/11/22 03:01:31;;;;;;;2.33;1.13;;;;;;;7.13;55.50;97999.06;3416134;28;20047;-72
2021/11/22 03:03:12;;;;;;;1.08;1.08;;;;;;;7.12;55.40;97987.63;3415880;29;20399;-70
2021/11/22 03:04:53;;;;;;;1.30;1.20;;;;;;;7.13;55.42;97983.16;3416221;29;21033;-72
2021/11/22 03:06:33;;;;;;;1.40;1.20;;;;;;;7.11;55.39;98001.91;3391778;29;20582;-71
2021/11/22 03:08:14;;;;;;;1.08;1.02;;;;;;;7.10;55.38;98002.94;3412130;28;20039;-72
2021/11/22 03:09:55;;;;;;;1.42;1.00;;;;;;;7.09;55.12;98008.44;3398971;29;20047;-71
2021/11/22 03:11:35;;;;;;;1.40;1.30;;;;;;;7.08;55.40;98015.59;3412483;29;20522;-71
2021/11/22 03:13:16;;;;;;;1.20;1.10;;;;;;;7.07;55.41;98013.16;3415869;29;20453;-72
2021/11/22 03:14:57;;;;;;;1.55;1.27;;;;;;;7.08;55.34;98012.13;3400744;29;20044;-71
2021/11/22 03:16:37;;;;;;;1.25;1.15;;;;;;;7.09;55.25;98019.03;3411563;29;20135;-71
2021/11/22 03:18:18;;;;;;;1.25;1.13;;;;;;;7.08;55.27;98025.38;3413120;28;20094;-72
2021/11/22 03:19:59;;;;;;;1.70;1.50;;;;;;;7.11;55.23;98033.69;3414833;28;20039;-71
2021/11/22 03:21:41;;;;;;;2.40;1.40;;;;;;;7.10;55.09;98021.50;3414989;29;20046;-70
2021/11/22 03:23:22;;;;;;;1.10;1.00;;;;;;;7.14;55.17;98027.97;3413377;29;20107;-70
2021/11/22 03:25:04;;;;;;;2.65;1.70;;;;;;;7.13;55.03;98020.25;3415474;29;20134;-71
2021/11/22 03:26:45;;;;;;;1.55;1.30;;;;;;;7.14;55.02;98032.47;3413761;29;20043;-71
2021/11/22 03:28:28;;;;;;;1.00;1.00;;;;;;;7.13;55.04;98041.44;3415894;29;20050;-71
2021/11/22 03:30:11;;;;;;;1.52;1.10;;;;;;;7.12;55.04;98029.22;3401850;29;20060;-71
2021/11/22 03:31:52;;;;;;;1.30;1.20;;;;;;;7.10;55.00;98037.38;3411672;29;20035;-71
2021/11/22 03:33:33;;;;;;;1.77;0.93;;;;;;;7.12;54.81;98040.63;3415526;29;20473;-71
2021/11/22 03:35:14;;;;;;;1.20;1.10;;;;;;;7.12;54.89;98045.09;3415471;29;20043;-71
2021/11/22 03:37:01;;;;;;;0.90;0.90;;;;;;;7.11;54.48;98043.50;3414388;29;20070;-71
2021/11/22 03:38:42;;;;;;;2.50;1.00;;;;;;;7.11;54.65;98054.09;3414717;29;20149;-71
2021/11/22 03:40:23;;;;;;;2.15;1.08;;;;;;;7.08;54.60;98049.22;3414474;28;20067;-71
2021/11/22 03:42:07;;;;;;;2.20;1.20;;;;;;;7.12;54.56;98058.34;3415304;29;20050;-72
2021/11/22 03:43:50;;;;;;;2.85;1.23;;;;;;;7.11;54.38;98049.59;3401385;29;20291;-70
2021/11/22 03:45:31;;;;;;;1.67;1.20;;;;;;;7.12;54.50;98059.16;3411829;29;20081;-72
2021/11/22 03:47:12;;;;;;;1.45;1.00;;;;;;;7.12;54.34;98061.81;3413889;29;20039;-71
2021/11/22 03:48:53;;;;;;;0.88;0.88;;;;;;;7.14;54.37;98061.59;3401304;29;20368;-71
2021/11/22 03:50:34;;;;;;;1.35;1.15;;;;;;;7.14;54.41;98062.41;3411368;29;20035;-72
2021/11/22 03:52:14;;;;;;;1.00;0.90;;;;;;;7.17;54.40;98071.78;3413645;29;20047;-71
2021/11/22 03:53:55;;;;;;;2.42;1.30;;;;;;;7.14;54.15;98066.91;3413438;29;20129;-70
2021/11/22 03:55:36;;;;;;;1.48;1.20;;;;;;;7.16;54.00;98072.81;3415329;29;20043;-70
2021/11/22 03:57:17;;;;;;;0.77;0.77;;;;;;;7.17;54.02;98079.72;3413472;29;20131;-71
2021/11/22 03:58:58;;;;;;;2.67;1.10;;;;;;;7.17;54.00;98079.72;3401034;29;20070;-71
2021/11/22 04:00:38;;;;;;;1.05;0.95;;;;;;;7.16;53.98;98083.41;3409114;28;21749;-73
2021/11/22 04:02:19;;;;;;;1.50;1.40;;;;;;;7.15;53.88;98097.66;3415204;29;20062;-72
2021/11/22 04:04:03;;;;;;;0.80;0.80;;;;;;;7.15;54.08;98087.06;3414996;29;20047;-71
2021/11/22 04:05:44;;;;;;;1.20;1.10;;;;;;;7.13;53.80;98086.50;3413745;29;20050;-71
2021/11/22 04:07:25;;;;;;;0.90;0.90;;;;;;;7.14;53.66;98085.44;3414232;29;20043;-71
2021/11/22 04:09:06;;;;;;;1.60;1.50;;;;;;;7.13;53.82;98099.72;3415531;29;20043;-71
2021/11/22 04:10:47;;;;;;;2.97;1.45;;;;;;;7.08;53.74;98097.72;3413829;28;20410;-71
2021/11/22 04:12:28;;;;;;;1.13;0.93;;;;;;;7.14;53.76;98102.16;3414503;29;20047;-72
2021/11/22 04:14:09;;;;;;;1.58;1.48;;;;;;;7.13;53.48;98097.88;3414286;28;20066;-71
2021/11/22 04:15:50;;;;;;;1.45;1.35;;;;;;;7.14;53.79;98102.16;3416515;29;20046;-72
2021/11/22 04:17:30;;;;;;;2.70;1.45;;;;;;;7.13;53.84;98099.72;3415537;29;20106;-70
2021/11/22 04:19:11;;;;;;;2.10;1.25;;;;;;;7.13;53.87;98116.44;3414001;29;20091;-71
2021/11/22 04:20:52;;;;;;;1.27;1.17;;;;;;;7.15;53.65;98113.56;3414889;28;20094;-71
2021/11/22 04:22:33;;;;;;;3.40;1.20;;;;;;;7.16;53.54;98123.16;3419160;28;20074;-71
2021/11/22 04:24:14;;;;;;;2.80;1.02;;;;;;;7.15;53.77;98124.16;3413445;28;20035;-71
2021/11/22 04:25:54;;;;;;;1.42;1.30;;;;;;;7.16;53.78;98125.78;3415877;29;20047;-70
2021/11/22 04:27:36;;;;;;;1.27;1.00;;;;;;;7.15;53.70;98124.16;3401289;29;20043;-72
2021/11/22 04:29:16;;;;;;;1.25;1.15;;;;;;;7.17;53.71;98135.34;3411430;29;20038;-72
2021/11/22 04:30:57;;;;;;;1.75;1.27;;;;;;;7.17;53.55;98130.88;3413482;28;20483;-72
2021/11/22 04:32:38;;;;;;;2.65;1.25;;;;;;;7.10;53.53;98131.91;3418705;28;20043;-72
2021/11/22 04:34:18;;;;;;;1.92;1.40;;;;;;;7.15;53.53;98146.19;3417236;28;20063;-72
2021/11/22 04:35:59;;;;;;;1.90;1.45;;;;;;;7.15;53.39;98146.19;3415418;29;20078;-71
2021/11/22 04:37:40;;;;;;;2.17;1.27;;;;;;;7.15;53.55;98148.84;3414605;29;20133;-72
2021/11/22 04:39:21;;;;;;;3.08;1.55;;;;;;;7.14;53.11;98154.34;3413954;29;20039;-70
2021/11/22 04:41:02;;;;;;;1.20;1.10;;;;;;;7.13;53.24;98158.81;3420490;28;20042;-72
2021/11/22 04:42:47;;;;;;;1.30;1.20;;;;;;;7.12;53.38;98166.97;3412901;28;20528;-71
2021/11/22 04:44:27;;;;;;;1.10;1.10;;;;;;;7.10;53.27;98163.72;3400595;29;20050;-72
2021/11/22 04:46:08;;;;;;;1.40;1.30;;;;;;;7.13;53.35;98168.63;3409860;29;20039;-73
2021/11/22 04:47:50;;;;;;;1.50;1.20;;;;;;;7.09;53.46;98173.50;3414707;29;20051;-74
2021/11/22 04:49:31;;;;;;;1.00;0.82;;;;;;;7.12;53.22;98180.22;3387391;29;20587;-74
2021/11/22 04:51:12;;;;;;;1.00;1.00;;;;;;;7.13;53.25;98181.84;3408278;28;20042;-71
2021/11/22 04:52:55;;;;;;;1.20;1.10;;;;;;;7.12;53.33;98188.16;3412788;29;20042;-73
2021/11/22 04:54:38;;;;;;;2.65;1.55;;;;;;;7.11;53.28;98186.56;3411494;28;20502;-73
2021/11/22 04:56:19;;;;;;;1.40;1.10;;;;;;;7.12;53.33;98188.97;3414813;29;20569;-71
2021/11/22 04:58:00;;;;;;;1.30;1.17;;;;;;;7.08;53.20;98181.69;3414524;29;20047;-73
2021/11/22 04:59:42;;;;;;;2.47;1.10;;;;;;;7.11;53.14;98200.59;3413782;29;20070;-72
2021/11/22 05:01:23;;;;;;;2.42;1.08;;;;;;;7.10;53.14;98200.78;3407662;28;20043;-71
2021/11/22 05:03:06;;;;;;;1.13;1.00;;;;;;;7.13;53.22;98211.00;3397092;29;20050;-73
2021/11/22 05:04:46;;;;;;;1.90;1.08;;;;;;;7.10;53.06;98206.09;3411468;28;20122;-71
2021/11/22 05:06:30;;;;;;;1.15;1.15;;;;;;;7.11;52.98;98210.38;3399205;29;20050;-73
2021/11/22 05:08:10;;;;;;;3.65;1.20;;;;;;;7.10;52.82;98206.09;3412238;29;20079;-73
2021/11/22 05:09:51;;;;;;;0.80;0.80;;;;;;;7.08;52.69;98213.47;3414622;29;20502;-73
2021/11/22 05:11:32;;;;;;;1.02;1.00;;;;;;;7.06;52.59;98216.31;3408805;28;20031;-72
2021/11/22 05:13:15;;;;;;;1.20;1.10;;;;;;;7.04;52.63;98222.84;3408327;29;20042;-72
2021/11/22 05:14:56;;;;;;;1.20;1.10;;;;;;;7.01;52.55;98223.25;3410268;29;20524;-74
2021/11/22 05:16:37;;;;;;;1.08;1.00;;;;;;;7.02;52.56;98235.47;3413386;29;20051;-71
2021/11/22 05:18:18;;;;;;;1.65;1.35;;;;;;;7.02;52.59;98236.28;3414555;29;20039;-70
2021/11/22 05:20:00;;;;;;;1.05;1.00;;;;;;;7.01;52.43;98236.50;3413835;29;20475;-72
2021/11/22 05:21:41;;;;;;;1.30;1.20;;;;;;;6.98;52.48;98241.19;3413782;28;20421;-71
2021/11/22 05:23:21;;;;;;;1.42;1.10;;;;;;;7.01;52.67;98249.75;3412546;28;20047;-71
2021/11/22 05:25:03;;;;;;;1.90;1.33;;;;;;;7.01;52.67;98252.41;3409846;29;20039;-73
2021/11/22 05:26:44;;;;;;;;;;;;;;;7.10;52.64;98256.44;3409607;29;20062;-73
2021/11/22 05:28:27;;;;;;;1.30;0.90;;;;;;;7.02;52.33;98262.75;3409274;29;19977;-71
2021/11/22 05:30:08;;;;;;;1.17;1.08;;;;;;;6.98;52.36;98261.56;3410784;29;20055;-72
2021/11/22 05:31:49;;;;;;;0.75;0.75;;;;;;;6.95;52.20;98261.97;3409612;29;20047;-71
2021/11/22 05:33:30;;;;;;;1.02;1.00;;;;;;;6.94;52.53;98271.78;3383232;29;20108;-72
2021/11/22 05:35:11;;;;;;;1.10;1.10;;;;;;;6.95;52.53;98278.69;3405634;29;20039;-72
2021/11/22 05:36:52;;;;;;;2.65;0.85;;;;;;;6.96;52.68;98275.00;3414763;29;20066;-70
2021/11/22 05:38:33;;;;;;;1.45;1.20;;;;;;;6.96;52.56;98277.66;3414077;28;20035;-70
2021/11/22 05:40:15;;;;;;;0.80;0.80;;;;;;;6.93;52.72;98266.66;3415336;29;20106;-68
2021/11/22 05:41:57;;;;;;;0.90;0.90;;;;;;;6.96;52.50;98277.66;3420042;29;20043;-72
2021/11/22 05:43:38;;;;;;;1.20;0.80;;;;;;;7.00;52.40;98286.00;3424067;29;20467;-73
2021/11/22 05:45:19;;;;;;;7.90;1.08;;;;;;;6.98;52.52;98280.91;3419125;29;20125;-71
2021/11/22 05:47:02;;;;;;;0.80;0.80;;;;;;;7.02;52.54;98291.91;3410406;29;20054;-75
2021/11/22 05:48:45;;;;;;;3.08;1.20;;;;;;;7.10;54.35;98290.88;3416317;29;20043;-73
2021/11/22 05:50:26;;;;;;;4.53;1.10;;;;;;;7.21;54.82;98301.66;3418389;28;20098;-72
2021/11/22 05:52:10;;;;;;;1.25;0.90;;;;;;;7.41;55.52;98298.97;3412471;29;20077;-70
2021/11/22 05:53:52;;;;;;;6.95;1.20;;;;;;;7.59;55.16;98308.06;3409281;29;20049;-72
2021/11/22 05:55:35;;;;;;;0.90;0.90;;;;;;;7.71;54.86;98308.25;3409741;29;20047;-72
2021/11/22 05:57:18;;;;;;;3.75;0.90;;;;;;;7.75;54.12;98317.41;3396744;29;20043;-72
2021/11/22 05:58:59;;;;;;;4.10;1.10;;;;;;;7.84;54.08;98318.78;3408036;29;20035;-72
2021/11/22 06:00:42;;;;;;;2.03;1.00;;;;;;;7.92;54.19;98331.81;3412583;29;20123;-73
2021/11/22 06:02:23;;;;;;;0.85;0.75;;;;;;;8.02;54.02;98326.06;3413984;29;20039;-73
2021/11/22 06:04:04;;;;;;;0.93;0.90;;;;;;;8.09;53.62;98332.97;3408796;29;20047;-71
2021/11/22 06:05:44;;;;;;;2.00;1.17;;;;;;;8.16;53.74;98332.94;3407411;28;20186;-72
2021/11/22 06:07:25;;;;;;;2.33;1.02;;;;;;;8.26;54.66;98343.91;3410482;29;20046;-70
2021/11/22 06:09:06;;;;;;;0.60;0.60;;;;;;;8.35;54.18;98347.13;3408802;29;20378;-74
2021/11/22 06:10:49;;;;;;;0.77;0.50;;;;;;;8.46;54.91;98350.97;3408666;29;20439;-73
2021/11/22 06:12:30;;;;;;;3.50;1.05;;;;;;;8.50;54.15;98352.19;3412084;29;20031;-73
2021/11/22 06:14:11;;;;;;;3.28;1.20;;;;;;;8.54;53.69;98371.13;3413335;29;20423;-71
2021/11/22 06:15:52;;;;;;;3.20;0.93;;;;;;;8.44;53.36;98355.66;3412791;29;20234;-71
2021/11/22 06:17:33;;;;;;;3.13;1.25;;;;;;;8.37;53.17;98365.50;3395287;29;20035;-71
2021/11/22 06:19:14;;;;;;;1.85;0.98;;;;;;;8.30;52.92;98382.25;3408371;29;20035;-73
2021/11/22 06:20:55;;;;;;;3.50;0.95;;;;;;;8.23;53.09;98378.81;3407835;29;20086;-75
2021/11/22 06:22:36;;;;;;;0.82;0.70;;;;;;;8.18;53.04;98386.59;3410091;29;20495;-74
2021/11/22 06:24:17;;;;;;;1.25;0.80;;;;;;;8.12;53.01;98382.16;3405990;29;20818;-73
2021/11/22 06:25:58;;;;;;;1.52;1.00;;;;;;;8.00;52.47;98387.31;3407829;29;20051;-75
2021/11/22 06:27:39;;;;;;;0.63;0.57;;;;;;;7.90;52.12;98396.72;3412474;29;20098;-72
2021/11/22 06:29:21;;;;;;;1.13;1.00;;;;;;;7.83;51.94;98404.72;3409556;29;20095;-73
2021/11/22 06:31:04;;;;;;;0.68;0.60;;;;;;;7.80;51.93;98405.94;3393416;29;20051;-72
2021/11/22 06:32:45;;;;;;;1.10;0.70;;;;;;;7.78;52.09;98404.53;3400299;29;20111;-80
2021/11/22 06:34:26;;;;;;;4.53;0.90;;;;;;;7.79;52.18;98414.91;3399490;29;20127;-77
2021/11/22 06:36:07;;;;;;;0.95;0.88;;;;;;;7.79;52.15;98419.41;3394620;29;20039;-75
2021/11/22 06:37:50;;;;;;;2.47;0.90;;;;;;;7.75;52.02;98421.66;3394290;29;20040;-77
2021/11/22 06:39:32;;;;;;;1.60;0.93;;;;;;;7.71;51.60;98420.44;3395969;29;20040;-76
2021/11/22 06:41:13;;;;;;;1.35;1.25;;;;;;;7.67;51.21;98434.31;3398206;29;20503;-76
2021/11/22 06:42:54;;;;;;;2.72;1.95;;;;;;;7.60;50.95;98434.34;3379997;29;20221;-75
2021/11/22 06:44:35;;;;;;;3.33;0.80;;;;;;;7.56;50.76;98443.72;3377225;29;20048;-75
2021/11/22 06:46:16;;;;;;;0.98;0.70;;;;;;;7.53;50.47;98438.81;3392785;29;20455;-73
2021/11/22 06:47:57;;;;;;;1.20;0.90;;;;;;;7.51;50.50;98456.75;3400713;29;20036;-75
2021/11/22 06:49:38;;;;;;;1.77;1.10;;;;;;;7.52;50.99;98461.88;3397042;29;20046;-77
2021/11/22 06:51:18;;;;;;;2.38;1.30;;;;;;;7.53;50.90;98466.16;3397210;29;20130;-76
2021/11/22 06:53:01;;;;;;;1.05;0.80;;;;;;;7.53;50.57;98470.63;3394553;29;20091;-75
2021/11/22 06:54:44;;;;;;;2.28;0.75;;;;;;;7.51;50.45;98467.38;3393569;29;20417;-75
2021/11/22 06:56:25;;;;;;;2.88;1.10;;;;;;;7.49;50.25;98478.19;3400368;29;20043;-75
2021/11/22 06:58:05;;;;;;;0.88;0.88;;;;;;;7.45;49.90;98484.09;3413311;29;20046;-74
2021/11/22 06:59:46;;;;;;;0.77;0.70;;;;;;;7.39;49.40;98481.25;3404134;29;20032;-75
2021/11/22 07:01:27;;;;;;;0.98;0.80;;;;;;;7.37;49.20;98507.13;3400418;29;20127;-77
2021/11/22 07:03:08;;;;;;;0.70;0.70;;;;;;;7.36;49.25;98508.16;3402812;29;20035;-76
2021/11/22 07:04:49;;;;;;;2.30;0.95;;;;;;;7.36;49.19;98508.16;3403231;29;20042;-76
2021/11/22 07:06:30;;;;;;;1.52;0.73;;;;;;;7.37;49.25;98503.69;3402764;28;20036;-76
2021/11/22 07:08:11;;;;;;;1.02;0.85;;;;;;;7.39;49.27;98510.41;3415259;28;20042;-75
2021/11/22 07:09:52;;;;;;;1.55;0.80;;;;;;;7.45;49.40;98532.63;3402484;29;20131;-76
2021/11/22 07:11:33;;;;;;;1.58;0.90;;;;;;;7.53;49.73;98515.72;3413693;28;20517;-73
2021/11/22 07:13:14;;;;;;;0.85;0.70;;;;;;;7.59;49.99;98536.94;3403116;29;20039;-75
2021/11/22 07:14:55;;;;;;;0.70;0.68;;;;;;;7.63;49.97;98524.06;3402274;29;20038;-78
2021/11/22 07:16:38;;;;;;;0.98;0.90;;;;;;;7.72;49.81;98522.00;3398484;28;20518;-77
2021/11/22 07:18:20;;;;;;;2.55;1.25;;;;;;;7.78;50.10;98542.44;3399449;29;20039;-75
2021/11/22 07:20:03;;;;;;;0.82;0.75;;;;;;;7.84;50.15;98547.72;3401470;29;20036;-76
2021/11/22 07:21:44;;;;;;;1.67;0.77;;;;;;;8.09;50.56;98536.47;3399293;29;20407;-76
2021/11/22 07:23:25;;;;;;;2.20;1.13;;;;;;;8.49;50.35;98550.50;3388292;29;20044;-77
2021/11/22 07:25:06;;;;;;;2.85;0.82;;;;;;;8.69;49.94;98561.03;3409790;29;20035;-77
2021/11/22 07:26:47;;;;;;;3.63;0.80;;;;;;;8.83;49.61;98555.69;3405160;29;20086;-76
2021/11/22 07:28:28;;;;;;;1.25;0.85;;;;;;;8.81;48.90;98555.91;3414794;29;20047;-75
2021/11/22 07:30:09;;;;;;;1.52;1.05;;;;;;;8.71;48.50;98559.00;3409540;29;20126;-75
2021/11/22 07:31:50;;;;;;;0.80;0.80;;;;;;;8.92;47.66;98565.84;3412837;28;20074;-72
2021/11/22 07:33:31;;;;;;;2.72;0.75;;;;;;;9.52;47.10;98570.81;3410854;29;20058;-78
2021/11/22 07:35:12;;;;;;;1.15;0.90;;;;;;;9.74;47.04;98559.84;3399446;29;20039;-75
2021/11/22 07:36:52;;;;;;;1.52;1.17;;;;;;;9.89;47.14;98586.13;3412434;29;20051;-77
2021/11/22 07:38:35;;;;;;;1.20;0.85;;;;;;;9.98;46.52;98582.97;3415175;28;20163;-77
2021/11/22 07:40:21;;;;;;;0.80;0.80;;;;;;;10.08;45.85;98593.13;3414926;28;20043;-77
2021/11/22 07:42:02;;;;;;;1.23;0.90;;;;;;;10.02;45.63;98602.81;3414094;28;20117;-74
2021/11/22 07:43:42;;;;;;;2.55;1.20;;;;;;;9.88;45.53;98590.63;3414311;29;20520;-76
2021/11/22 07:45:26;;;;;;;2.25;1.23;;;;;;;9.79;45.07;98597.25;3413099;28;20195;-76
2021/11/22 07:47:06;;;;;;;1.38;1.17;;;;;;;9.68;44.92;98603.25;3415062;28;20039;-74
2021/11/22 07:48:47;;;;;;;0.98;0.70;;;;;;;9.57;45.12;98604.78;3414907;28;20039;-74
2021/11/22 07:50:29;;;;;;;1.63;0.68;;;;;;;9.48;45.68;98609.53;3415607;28;20047;-75
2021/11/22 07:52:09;;;;;;;0.82;0.70;;;;;;;9.41;46.48;98611.41;3404533;29;20118;-75
2021/11/22 07:53:51;;;;;;;0.88;0.88;;;;;;;9.33;46.18;98612.47;3414273;29;20073;-74
2021/11/22 07:55:31;;;;;;;1.13;0.90;;;;;;;9.26;46.22;98624.19;3416203;29;20062;-76
2021/11/22 07:57:13;;;;;;;0.75;0.68;;;;;;;9.21;46.48;98634.63;3419877;28;20039;-77
2021/11/22 07:58:54;;;;;;;1.15;0.80;;;;;;;9.16;46.72;98609.50;3422726;28;20530;-75
2021/11/22 08:00:34;;;;;;;1.63;0.80;;;;;;;9.15;46.85;98621.16;3422173;28;20127;-75
2021/11/22 08:02:15;;;;;;;2.30;1.25;;;;;;;9.09;47.06;98624.69;3423479;28;20582;-75
2021/11/22 08:03:56;;;;;;;1.02;0.90;;;;;;;9.02;46.79;98634.50;3422689;28;20043;-74